Aérodrome :
LOGIN :

S'inscrire | Disclaimer

   EN    FR    IT 

 










Légende :    VFR   VFR Marginal   IFR   IFR Intensif   IFR Très Intensif
Visi : 
Plafond : 
>= 8 km
>= 3000ft
5 à 8 km
1000 à 3000 ft
1500m à 5 km
500 à 1000 ft
800 à 1500m
200 à 500 ft
< 800m
< 200 ft
Symboles :   Orages  Brouillard  Fortes neiges  Fortes précipitations  Vent > 20 kt
SIGMETs :   Divers  Orages  Givrage  Turbulence  Onde Orograph.  Cendres Volcan.







- Altitude de l'aérodrome : 17 ft
- Code IATA : GRQ


EHGG - Groningen Eelde

DERNIER METAR :
  • 130425Z AUTO 20009KT 7000 NSC 08/07 Q1016

METARs EXPIRÉS :
  • 130355Z AUTO 19008KT 170V230 7000 NSC 08/07 Q1016
  • 130325Z AUTO 19009KT 6000 NSC 08/07 Q1016
  • 130255Z AUTO 19007KT 160V220 5000 BR NSC 08/07 Q1016
  • 130225Z AUTO 20008KT 6000 NSC 08/07 Q1016
  • 130155Z AUTO 20007KT 6000 NSC 08/07 Q1016

TAF TAF EHGG
Valide du 13 à 00h jusqu'au 14 à 06h UTC


122315Z 1300/1406 18009KT 7000 NSC
PROB30 1300/1305 4000 BR
BECMG 1303/1306 21012KT
PROB40 1305/1310 6000 BKN006
BECMG 1309/1312 24015KT 9999
TEMPO 1309/1312 25015G25KT 5000 SHRA RA SCT018CB BKN025
PROB30
TEMPO 1312/1316 24015G25KT 7000 -SHRA FEW020TCU
BECMG 1321/1324 20007KT
PROB30
TEMPO 1400/1406 1500 MIFG BR
Pas de NOTAMs connus pour ce terrain.



MET'MAP, la Météo Aéronautique d'un coup d'oeil ! - Copyright ORBIFLY Décembre 2007 - Disclaimer

ORBIFLY MET'MAP TEAM :

Programmation & Développement : Alexandra Zaïnal
Conception & Développement : Baudouin d'Aumeries
Co-Programmation & Développement : Marc-Olivier Méhu
Soutien technique & logistique : Manuel Goepfert

Contact : metmap@orbifly.com




SOURCES & CREDITS :

   NOAA